Terminal Aerodrome Forecast
Issued by NWS Blacksburg, VA

Home | Current Version | Previous Version | Text Only | Print | Product List | Glossary On
Versions: 1 2 3 4 5 6 7 8 9 10 11 12 13 14 15 16 17
000
FTUS41 KRNK 221140
TAFDAN
TAF
KDAN 221140Z 2212/2312 00000KT P6SM SCT005 OVC022
      TEMPO 2212/2214 BKN005
     FM221400 06005KT 4SM -RA BR OVC008
     FM221600 07005KT 6SM -RA BR OVC012
     FM221800 08006KT P6SM OVC015
     FM222300 08005KT 6SM BR OVC008
     FM230100 07007KT 2SM SHRA BR BKN007 OVC015
     FM230400 09012G20KT 1SM SHRA SCT007 OVC015
     FM230900 13007KT 3SM -SHRA SCT004 OVC020=

USA.gov is the U.S. government's official web portal to all federal, state and local government web resources and services.